Constanza Dom Re Airport


Codes: MDCZ/COZ
Name: Constanza Dom Re Airport
City: Costanza
Country: Dominican Republic
Elevation: 3950 ft.

Photos at Constanza Dom Re Airport


   Photos courtesy of SpottingLog. You can add your own sightings and photos by signing up for a free trial today.



No photos found.

Weather at Constanza Dom Re Airport


Time (UTC)DescriptionTempratureWindCloud coverageVisibilityPressureHumidity
18-Apr-2024 00:00Moderate Rain19°C4 mph, N72%2250m1016hPa94%
18-Apr-2024 03:00Light Rain19°C4 mph, N86%0m1017hPa96%
18-Apr-2024 06:00Light Rain18°C2 mph, NE93%9018m1017hPa98%
18-Apr-2024 09:00Scattered Clouds17°C2 mph, NE50%7340m1017hPa97%
18-Apr-2024 12:00Scattered Clouds18°C2 mph, NE40%10000m1018hPa88%
18-Apr-2024 15:00Light Rain22°C2 mph, NE35%10000m1017hPa73%
18-Apr-2024 18:00Light Rain22°C2 mph, NE56%10000m1016hPa77%
18-Apr-2024 21:00Light Rain20°C2 mph, N53%10000m1015hPa86%
19-Apr-2024 00:00Light Rain18°C4 mph, N59%0m1017hPa98%
19-Apr-2024 03:00Light Rain18°C2 mph, NE100%222m1018hPa98%
19-Apr-2024 06:00Light Rain17°C2 mph, NE86%4191m1016hPa97%
19-Apr-2024 09:00Broken Clouds17°C2 mph, NE83%9497m1016hPa95%
19-Apr-2024 12:00Broken Clouds18°C2 mph, NE75%10000m1018hPa89%
19-Apr-2024 15:00Light Rain23°C0 mph, N32%10000m1017hPa65%
19-Apr-2024 18:00Light Rain23°C2 mph, NW40%10000m1016hPa73%
19-Apr-2024 21:00Light Rain20°C2 mph, N78%10000m1015hPa84%
20-Apr-2024 00:00Light Rain18°C2 mph, NE85%85m1018hPa97%
20-Apr-2024 03:00Light Rain18°C4 mph, NE100%134m1019hPa98%
20-Apr-2024 06:00Light Rain17°C4 mph, N100%0m1017hPa98%
20-Apr-2024 09:00Light Rain17°C2 mph, N100%0m1017hPa97%
20-Apr-2024 12:00Broken Clouds17°C4 mph, NE78%10000m1019hPa91%
20-Apr-2024 15:00Light Rain22°C2 mph, NE49%10000m1019hPa71%
20-Apr-2024 18:00Light Rain20°C2 mph, NE65%10000m1018hPa84%
20-Apr-2024 21:00Moderate Rain19°C2 mph, NE85%1869m1017hPa93%
21-Apr-2024 00:00Light Rain18°C2 mph, NE93%2886m1018hPa97%
21-Apr-2024 03:00Light Rain17°C2 mph, NE100%2364m1019hPa97%
21-Apr-2024 06:00Light Rain17°C2 mph, E98%4402m1018hPa98%
21-Apr-2024 09:00Light Rain17°C2 mph, E98%5020m1017hPa96%
21-Apr-2024 12:00Overcast Clouds18°C2 mph, E93%10000m1019hPa90%
21-Apr-2024 15:00Light Rain22°C2 mph, SE70%10000m1018hPa78%
21-Apr-2024 18:00Moderate Rain21°C2 mph, SE78%9005m1017hPa87%
21-Apr-2024 21:00Moderate Rain20°C0 mph, SE75%7331m1016hPa89%
22-Apr-2024 00:00Moderate Rain18°C2 mph, E73%5370m1018hPa99%
22-Apr-2024 03:00Light Rain18°C2 mph, SE87%10000m1019hPa97%
22-Apr-2024 06:00Overcast Clouds17°C2 mph, S92%10000m1017hPa97%
22-Apr-2024 09:00Scattered Clouds16°C2 mph, S26%10000m1017hPa95%
22-Apr-2024 12:00Few Clouds20°C2 mph, S14%10000m1018hPa83%
22-Apr-2024 15:00Clear Sky25°C2 mph, S0%10000m1017hPa60%
22-Apr-2024 18:00Light Rain24°C0 mph, SW16%8889m1016hPa71%
22-Apr-2024 21:00Moderate Rain22°C0 mph, NW44%10000m1015hPa79%